sensor_id;sensor_type;location;lat;lon;timestamp;P1;durP1;ratioP1;P2;durP2;ratioP2
45322;SDS011;31382;50.200;8.674;2023-03-23T00:07:30;1.20;;;0.30;;
45322;SDS011;31382;50.200;8.674;2023-03-23T00:12:34;1.75;;;0.20;;
45322;SDS011;31382;50.200;8.674;2023-03-23T00:17:38;0.30;;;0.10;;
45322;SDS011;31382;50.200;8.674;2023-03-23T00:22:41;0.50;;;0.20;;
45322;SDS011;31382;50.200;8.674;2023-03-23T00:27:41;0.93;;;0.20;;
45322;SDS011;31382;50.200;8.674;2023-03-23T00:32:41;4.40;;;0.40;;
45322;SDS011;31382;50.200;8.674;2023-03-23T00:37:42;2.17;;;1.17;;
45322;SDS011;31382;50.200;8.674;2023-03-23T00:42:43;1.63;;;0.20;;
45322;SDS011;31382;50.200;8.674;2023-03-23T00:53:02;0.30;;;0.13;;
45322;SDS011;31382;50.200;8.674;2023-03-23T00:58:02;1.30;;;0.20;;
45322;SDS011;31382;50.200;8.674;2023-03-23T01:03:03;0.30;;;0.20;;
45322;SDS011;31382;50.200;8.674;2023-03-23T01:23:55;0.50;;;0.20;;
45322;SDS011;31382;50.200;8.674;2023-03-23T01:34:12;1.97;;;0.40;;
45322;SDS011;31382;50.200;8.674;2023-03-23T01:50:14;0.45;;;0.30;;
45322;SDS011;31382;50.200;8.674;2023-03-23T02:05:48;1.13;;;0.17;;
45322;SDS011;31382;50.200;8.674;2023-03-23T02:27:28;0.50;;;0.28;;
45322;SDS011;31382;50.200;8.674;2023-03-23T02:37:58;1.17;;;0.20;;
45322;SDS011;31382;50.200;8.674;2023-03-23T02:43:02;0.30;;;0.20;;
45322;SDS011;31382;50.200;8.674;2023-03-23T02:48:07;0.90;;;0.20;;
45322;SDS011;31382;50.200;8.674;2023-03-23T03:14:21;1.73;;;0.32;;
45322;SDS011;31382;50.200;8.674;2023-03-23T03:19:30;0.68;;;0.30;;
45322;SDS011;31382;50.200;8.674;2023-03-23T03:24:35;0.80;;;0.20;;
45322;SDS011;31382;50.200;8.674;2023-03-23T03:29:38;1.27;;;0.40;;
45322;SDS011;31382;50.200;8.674;2023-03-23T03:34:41;0.73;;;0.30;;
45322;SDS011;31382;50.200;8.674;2023-03-23T03:39:41;1.93;;;0.27;;
45322;SDS011;31382;50.200;8.674;2023-03-23T03:44:42;0.90;;;0.30;;
45322;SDS011;31382;50.200;8.674;2023-03-23T03:49:42;0.77;;;0.30;;
45322;SDS011;31382;50.200;8.674;2023-03-23T03:54:42;1.92;;;0.30;;
45322;SDS011;31382;50.200;8.674;2023-03-23T03:59:43;1.35;;;0.30;;
45322;SDS011;31382;50.200;8.674;2023-03-23T04:04:43;1.38;;;0.30;;
45322;SDS011;31382;50.200;8.674;2023-03-23T04:09:44;0.63;;;0.20;;
45322;SDS011;31382;50.200;8.674;2023-03-23T04:14:48;1.83;;;0.30;;
45322;SDS011;31382;50.200;8.674;2023-03-23T04:19:48;1.23;;;0.30;;
45322;SDS011;31382;50.200;8.674;2023-03-23T04:24:50;0.75;;;0.47;;
45322;SDS011;31382;50.200;8.674;2023-03-23T04:29:51;0.30;;;0.20;;
45322;SDS011;31382;50.200;8.674;2023-03-23T04:40:15;1.10;;;0.28;;
45322;SDS011;31382;50.200;8.674;2023-03-23T04:45:19;1.33;;;0.40;;
45322;SDS011;31382;50.200;8.674;2023-03-23T04:55:38;2.50;;;0.50;;
45322;SDS011;31382;50.200;8.674;2023-03-23T05:00:38;0.98;;;0.35;;
45322;SDS011;31382;50.200;8.674;2023-03-23T05:05:39;2.55;;;0.40;;
45322;SDS011;31382;50.200;8.674;2023-03-23T05:10:40;0.93;;;0.30;;
45322;SDS011;31382;50.200;8.674;2023-03-23T05:15:41;0.95;;;0.30;;
45322;SDS011;31382;50.200;8.674;2023-03-23T05:20:42;1.95;;;0.40;;
45322;SDS011;31382;50.200;8.674;2023-03-23T05:25:42;2.45;;;0.40;;
45322;SDS011;31382;50.200;8.674;2023-03-23T05:30:43;2.20;;;0.40;;
45322;SDS011;31382;50.200;8.674;2023-03-23T05:35:45;0.93;;;0.30;;
45322;SDS011;31382;50.200;8.674;2023-03-23T05:40:47;1.40;;;0.30;;
45322;SDS011;31382;50.200;8.674;2023-03-23T05:45:48;2.25;;;0.45;;
45322;SDS011;31382;50.200;8.674;2023-03-23T05:50:49;0.52;;;0.35;;
45322;SDS011;31382;50.200;8.674;2023-03-23T05:55:50;1.63;;;0.50;;
45322;SDS011;31382;50.200;8.674;2023-03-23T06:00:51;0.80;;;0.40;;
45322;SDS011;31382;50.200;8.674;2023-03-23T06:05:51;1.07;;;0.70;;
45322;SDS011;31382;50.200;8.674;2023-03-23T06:10:52;1.95;;;0.47;;
45322;SDS011;31382;50.200;8.674;2023-03-23T06:15:54;1.37;;;0.40;;
45322;SDS011;31382;50.200;8.674;2023-03-23T06:20:57;2.67;;;0.40;;
45322;SDS011;31382;50.200;8.674;2023-03-23T06:25:59;1.77;;;0.40;;
45322;SDS011;31382;50.200;8.674;2023-03-23T06:31:03;2.10;;;0.60;;
45322;SDS011;31382;50.200;8.674;2023-03-23T06:36:06;0.80;;;0.77;;
45322;SDS011;31382;50.200;8.674;2023-03-23T06:41:07;1.13;;;0.45;;
45322;SDS011;31382;50.200;8.674;2023-03-23T06:46:08;0.30;;;0.30;;
45322;SDS011;31382;50.200;8.674;2023-03-23T06:51:09;0.98;;;0.40;;
45322;SDS011;31382;50.200;8.674;2023-03-23T06:56:10;4.25;;;0.50;;
45322;SDS011;31382;50.200;8.674;2023-03-23T07:01:11;1.85;;;0.93;;
45322;SDS011;31382;50.200;8.674;2023-03-23T07:06:12;0.75;;;0.38;;
45322;SDS011;31382;50.200;8.674;2023-03-23T07:11:13;0.55;;;0.50;;
45322;SDS011;31382;50.200;8.674;2023-03-23T07:16:13;2.45;;;0.60;;
45322;SDS011;31382;50.200;8.674;2023-03-23T07:21:14;2.43;;;0.50;;
45322;SDS011;31382;50.200;8.674;2023-03-23T07:26:14;1.27;;;0.50;;
45322;SDS011;31382;50.200;8.674;2023-03-23T07:31:14;1.13;;;0.50;;
45322;SDS011;31382;50.200;8.674;2023-03-23T07:36:15;1.50;;;0.77;;
45322;SDS011;31382;50.200;8.674;2023-03-23T07:41:15;0.87;;;0.50;;
45322;SDS011;31382;50.200;8.674;2023-03-23T07:46:15;0.90;;;0.50;;
45322;SDS011;31382;50.200;8.674;2023-03-23T07:51:16;2.10;;;0.60;;
45322;SDS011;31382;50.200;8.674;2023-03-23T07:56:16;1.63;;;0.73;;
45322;SDS011;31382;50.200;8.674;2023-03-23T08:01:19;2.78;;;0.80;;
45322;SDS011;31382;50.200;8.674;2023-03-23T08:06:20;2.17;;;0.63;;
45322;SDS011;31382;50.200;8.674;2023-03-23T08:11:21;1.13;;;0.70;;
45322;SDS011;31382;50.200;8.674;2023-03-23T08:16:22;3.10;;;0.70;;
45322;SDS011;31382;50.200;8.674;2023-03-23T08:21:22;2.25;;;0.63;;
45322;SDS011;31382;50.200;8.674;2023-03-23T08:26:23;3.70;;;0.73;;
45322;SDS011;31382;50.200;8.674;2023-03-23T08:31:23;4.63;;;0.70;;
45322;SDS011;31382;50.200;8.674;2023-03-23T08:36:24;1.83;;;0.93;;
45322;SDS011;31382;50.200;8.674;2023-03-23T08:41:25;3.03;;;0.80;;
45322;SDS011;31382;50.200;8.674;2023-03-23T08:46:26;1.10;;;0.50;;
45322;SDS011;31382;50.200;8.674;2023-03-23T08:51:26;2.30;;;0.60;;
45322;SDS011;31382;50.200;8.674;2023-03-23T08:56:26;1.50;;;0.57;;
45322;SDS011;31382;50.200;8.674;2023-03-23T09:01:27;3.20;;;0.80;;
45322;SDS011;31382;50.200;8.674;2023-03-23T09:06:27;1.73;;;0.53;;
45322;SDS011;31382;50.200;8.674;2023-03-23T09:11:28;1.13;;;0.57;;
45322;SDS011;31382;50.200;8.674;2023-03-23T09:16:28;2.17;;;0.73;;
45322;SDS011;31382;50.200;8.674;2023-03-23T09:21:29;2.90;;;0.60;;
45322;SDS011;31382;50.200;8.674;2023-03-23T09:26:30;2.30;;;0.50;;
45322;SDS011;31382;50.200;8.674;2023-03-23T09:31:30;1.55;;;0.50;;
45322;SDS011;31382;50.200;8.674;2023-03-23T09:36:31;1.20;;;0.50;;
45322;SDS011;31382;50.200;8.674;2023-03-23T09:41:39;1.73;;;0.70;;
45322;SDS011;31382;50.200;8.674;2023-03-23T09:46:55;1.63;;;0.52;;
45322;SDS011;31382;50.200;8.674;2023-03-23T09:52:05;3.22;;;0.63;;
45322;SDS011;31382;50.200;8.674;2023-03-23T09:57:15;3.10;;;0.82;;
45322;SDS011;31382;50.200;8.674;2023-03-23T10:02:21;1.55;;;0.50;;
45322;SDS011;31382;50.200;8.674;2023-03-23T10:07:28;1.40;;;0.40;;
45322;SDS011;31382;50.200;8.674;2023-03-23T10:12:31;1.20;;;0.45;;
45322;SDS011;31382;50.200;8.674;2023-03-23T10:17:42;0.98;;;0.50;;
45322;SDS011;31382;50.200;8.674;2023-03-23T10:28:20;0.60;;;0.20;;
45322;SDS011;31382;50.200;8.674;2023-03-23T10:33:33;2.28;;;0.30;;
45322;SDS011;31382;50.200;8.674;2023-03-23T10:38:49;1.88;;;0.82;;
45322;SDS011;31382;50.200;8.674;2023-03-23T10:43:53;1.05;;;0.40;;
45322;SDS011;31382;50.200;8.674;2023-03-23T10:48:54;0.68;;;0.20;;
45322;SDS011;31382;50.200;8.674;2023-03-23T10:53:58;0.80;;;0.20;;
45322;SDS011;31382;50.200;8.674;2023-03-23T11:04:41;0.22;;;0.20;;
45322;SDS011;31382;50.200;8.674;2023-03-23T11:09:57;3.80;;;0.30;;
45322;SDS011;31382;50.200;8.674;2023-03-23T11:15:11;2.08;;;0.30;;
45322;SDS011;31382;50.200;8.674;2023-03-23T11:20:20;3.60;;;0.40;;
45322;SDS011;31382;50.200;8.674;2023-03-23T11:25:21;2.40;;;0.30;;
45322;SDS011;31382;50.200;8.674;2023-03-23T11:35:23;0.60;;;0.40;;
45322;SDS011;31382;50.200;8.674;2023-03-23T11:40:28;0.40;;;0.30;;
45322;SDS011;31382;50.200;8.674;2023-03-23T11:45:35;1.23;;;0.40;;
45322;SDS011;31382;50.200;8.674;2023-03-23T11:50:51;1.80;;;0.38;;
45322;SDS011;31382;50.200;8.674;2023-03-23T11:56:06;3.22;;;0.68;;
45322;SDS011;31382;50.200;8.674;2023-03-23T12:17:47;0.75;;;0.20;;
45322;SDS011;31382;50.200;8.674;2023-03-23T12:22:59;2.72;;;0.20;;
45322;SDS011;31382;50.200;8.674;2023-03-23T12:44:09;0.30;;;0.10;;
45322;SDS011;31382;50.200;8.674;2023-03-23T12:54:21;1.02;;;0.13;;
45322;SDS011;31382;50.200;8.674;2023-03-23T13:05:03;0.43;;;0.40;;
45322;SDS011;31382;50.200;8.674;2023-03-23T13:10:22;0.30;;;0.17;;
45322;SDS011;31382;50.200;8.674;2023-03-23T13:15:33;0.70;;;0.20;;
45322;SDS011;31382;50.200;8.674;2023-03-23T13:31:29;0.60;;;0.13;;
45322;SDS011;31382;50.200;8.674;2023-03-23T13:36:35;1.00;;;0.63;;
45322;SDS011;31382;50.200;8.674;2023-03-23T13:41:45;0.88;;;0.15;;
45322;SDS011;31382;50.200;8.674;2023-03-23T13:47:07;1.25;;;0.10;;
45322;SDS011;31382;50.200;8.674;2023-03-23T13:57:52;0.20;;;0.20;;
45322;SDS011;31382;50.200;8.674;2023-03-23T14:03:02;0.57;;;0.20;;
45322;SDS011;31382;50.200;8.674;2023-03-23T14:13:23;0.33;;;0.20;;
45322;SDS011;31382;50.200;8.674;2023-03-23T14:18:36;1.58;;;0.20;;
45322;SDS011;31382;50.200;8.674;2023-03-23T14:23:38;0.70;;;0.22;;
45322;SDS011;31382;50.200;8.674;2023-03-23T14:28:41;0.90;;;0.45;;
45322;SDS011;31382;50.200;8.674;2023-03-23T14:33:43;0.43;;;0.20;;
45322;SDS011;31382;50.200;8.674;2023-03-23T14:38:43;1.95;;;0.20;;
45322;SDS011;31382;50.200;8.674;2023-03-23T14:43:44;2.47;;;0.95;;
45322;SDS011;31382;50.200;8.674;2023-03-23T14:48:45;1.55;;;0.30;;
45322;SDS011;31382;50.200;8.674;2023-03-23T14:53:46;1.25;;;0.20;;
45322;SDS011;31382;50.200;8.674;2023-03-23T14:58:51;0.85;;;0.17;;
45322;SDS011;31382;50.200;8.674;2023-03-23T15:04:15;0.88;;;0.20;;
45322;SDS011;31382;50.200;8.674;2023-03-23T15:09:21;3.50;;;0.20;;
45322;SDS011;31382;50.200;8.674;2023-03-23T15:14:27;1.50;;;0.20;;
45322;SDS011;31382;50.200;8.674;2023-03-23T15:19:34;1.35;;;0.40;;
45322;SDS011;31382;50.200;8.674;2023-03-23T15:24:40;0.88;;;0.20;;
45322;SDS011;31382;50.200;8.674;2023-03-23T15:29:48;0.50;;;0.40;;
45322;SDS011;31382;50.200;8.674;2023-03-23T15:34:53;0.55;;;0.20;;
45322;SDS011;31382;50.200;8.674;2023-03-23T15:39:55;0.55;;;0.20;;
45322;SDS011;31382;50.200;8.674;2023-03-23T15:44:58;0.70;;;0.20;;
45322;SDS011;31382;50.200;8.674;2023-03-23T15:50:17;1.65;;;0.40;;
45322;SDS011;31382;50.200;8.674;2023-03-23T16:00:25;0.50;;;0.20;;
45322;SDS011;31382;50.200;8.674;2023-03-23T16:05:28;0.95;;;0.43;;
45322;SDS011;31382;50.200;8.674;2023-03-23T16:10:29;0.82;;;0.55;;
45322;SDS011;31382;50.200;8.674;2023-03-23T16:15:31;3.33;;;0.30;;
45322;SDS011;31382;50.200;8.674;2023-03-23T16:20:32;1.98;;;0.77;;
45322;SDS011;31382;50.200;8.674;2023-03-23T16:25:36;0.50;;;0.13;;
45322;SDS011;31382;50.200;8.674;2023-03-23T16:30:41;3.08;;;0.20;;
45322;SDS011;31382;50.200;8.674;2023-03-23T16:35:43;0.70;;;0.20;;
45322;SDS011;31382;50.200;8.674;2023-03-23T16:40:45;2.05;;;0.20;;
45322;SDS011;31382;50.200;8.674;2023-03-23T16:45:47;1.55;;;0.50;;
45322;SDS011;31382;50.200;8.674;2023-03-23T16:50:50;0.57;;;0.30;;
45322;SDS011;31382;50.200;8.674;2023-03-23T16:55:52;0.88;;;0.40;;
45322;SDS011;31382;50.200;8.674;2023-03-23T17:00:57;0.57;;;0.30;;
45322;SDS011;31382;50.200;8.674;2023-03-23T17:06:01;0.77;;;0.30;;
45322;SDS011;31382;50.200;8.674;2023-03-23T17:11:02;3.22;;;0.40;;
45322;SDS011;31382;50.200;8.674;2023-03-23T17:16:04;0.65;;;0.30;;
45322;SDS011;31382;50.200;8.674;2023-03-23T17:21:06;1.98;;;0.35;;
45322;SDS011;31382;50.200;8.674;2023-03-23T17:26:07;1.20;;;0.52;;
45322;SDS011;31382;50.200;8.674;2023-03-23T17:31:09;1.08;;;0.65;;
45322;SDS011;31382;50.200;8.674;2023-03-23T17:36:10;2.67;;;0.60;;
45322;SDS011;31382;50.200;8.674;2023-03-23T17:41:12;1.90;;;0.60;;
45322;SDS011;31382;50.200;8.674;2023-03-23T17:46:13;1.10;;;0.40;;
45322;SDS011;31382;50.200;8.674;2023-03-23T17:51:15;1.83;;;0.50;;
45322;SDS011;31382;50.200;8.674;2023-03-23T17:56:16;0.95;;;0.50;;
45322;SDS011;31382;50.200;8.674;2023-03-23T18:01:18;1.27;;;0.40;;
45322;SDS011;31382;50.200;8.674;2023-03-23T18:06:19;1.67;;;0.40;;
45322;SDS011;31382;50.200;8.674;2023-03-23T18:11:26;2.13;;;0.52;;
45322;SDS011;31382;50.200;8.674;2023-03-23T18:16:32;0.75;;;0.40;;
45322;SDS011;31382;50.200;8.674;2023-03-23T18:27:04;2.13;;;0.50;;
45322;SDS011;31382;50.200;8.674;2023-03-23T18:32:06;2.40;;;0.40;;
45322;SDS011;31382;50.200;8.674;2023-03-23T18:37:09;2.35;;;0.52;;
45322;SDS011;31382;50.200;8.674;2023-03-23T18:42:10;1.30;;;0.50;;
45322;SDS011;31382;50.200;8.674;2023-03-23T18:47:12;3.58;;;0.45;;
45322;SDS011;31382;50.200;8.674;2023-03-23T18:52:13;1.10;;;0.68;;
45322;SDS011;31382;50.200;8.674;2023-03-23T18:57:15;2.53;;;0.63;;
45322;SDS011;31382;50.200;8.674;2023-03-23T19:02:18;2.72;;;1.08;;
45322;SDS011;31382;50.200;8.674;2023-03-23T19:07:20;2.58;;;1.00;;
45322;SDS011;31382;50.200;8.674;2023-03-23T19:17:38;3.28;;;0.50;;
45322;SDS011;31382;50.200;8.674;2023-03-23T19:22:39;2.60;;;0.60;;
45322;SDS011;31382;50.200;8.674;2023-03-23T19:27:41;1.85;;;0.68;;
45322;SDS011;31382;50.200;8.674;2023-03-23T19:33:03;1.70;;;0.60;;
45322;SDS011;31382;50.200;8.674;2023-03-23T19:38:04;2.35;;;0.40;;
45322;SDS011;31382;50.200;8.674;2023-03-23T19:43:07;1.38;;;0.63;;
45322;SDS011;31382;50.200;8.674;2023-03-23T19:48:08;3.65;;;0.45;;
45322;SDS011;31382;50.200;8.674;2023-03-23T19:53:12;1.17;;;0.60;;
45322;SDS011;31382;50.200;8.674;2023-03-23T19:58:14;0.85;;;0.40;;
45322;SDS011;31382;50.200;8.674;2023-03-23T20:03:16;1.23;;;0.73;;
45322;SDS011;31382;50.200;8.674;2023-03-23T20:08:18;2.58;;;0.88;;
45322;SDS011;31382;50.200;8.674;2023-03-23T20:13:19;3.08;;;0.50;;
45322;SDS011;31382;50.200;8.674;2023-03-23T20:18:21;1.00;;;0.60;;
45322;SDS011;31382;50.200;8.674;2023-03-23T20:23:22;1.52;;;0.55;;
45322;SDS011;31382;50.200;8.674;2023-03-23T20:28:25;1.08;;;0.50;;
45322;SDS011;31382;50.200;8.674;2023-03-23T20:33:27;2.60;;;0.70;;
45322;SDS011;31382;50.200;8.674;2023-03-23T20:38:30;2.78;;;0.70;;
45322;SDS011;31382;50.200;8.674;2023-03-23T20:43:35;4.07;;;0.70;;
45322;SDS011;31382;50.200;8.674;2023-03-23T20:48:38;1.42;;;0.60;;
45322;SDS011;31382;50.200;8.674;2023-03-23T20:53:40;1.35;;;0.50;;
45322;SDS011;31382;50.200;8.674;2023-03-23T20:58:41;1.65;;;0.70;;
45322;SDS011;31382;50.200;8.674;2023-03-23T21:03:43;2.03;;;0.50;;
45322;SDS011;31382;50.200;8.674;2023-03-23T21:08:45;2.80;;;0.68;;
45322;SDS011;31382;50.200;8.674;2023-03-23T21:13:47;1.33;;;0.60;;
45322;SDS011;31382;50.200;8.674;2023-03-23T21:18:49;2.10;;;0.80;;
45322;SDS011;31382;50.200;8.674;2023-03-23T21:23:51;0.93;;;0.60;;
45322;SDS011;31382;50.200;8.674;2023-03-23T21:28:54;1.40;;;0.60;;
45322;SDS011;31382;50.200;8.674;2023-03-23T21:39:02;0.95;;;0.50;;
45322;SDS011;31382;50.200;8.674;2023-03-23T21:44:08;1.33;;;0.60;;
45322;SDS011;31382;50.200;8.674;2023-03-23T21:49:10;0.98;;;0.70;;
45322;SDS011;31382;50.200;8.674;2023-03-23T21:54:20;4.20;;;1.13;;
45322;SDS011;31382;50.200;8.674;2023-03-23T21:59:22;2.80;;;0.70;;
45322;SDS011;31382;50.200;8.674;2023-03-23T22:04:24;2.08;;;0.73;;
45322;SDS011;31382;50.200;8.674;2023-03-23T22:09:25;2.10;;;0.90;;
45322;SDS011;31382;50.200;8.674;2023-03-23T22:14:27;1.45;;;0.93;;
45322;SDS011;31382;50.200;8.674;2023-03-23T22:19:28;1.45;;;1.02;;
45322;SDS011;31382;50.200;8.674;2023-03-23T22:24:30;1.70;;;0.85;;
45322;SDS011;31382;50.200;8.674;2023-03-23T22:29:33;2.20;;;1.25;;
45322;SDS011;31382;50.200;8.674;2023-03-23T22:34:35;2.05;;;1.30;;
45322;SDS011;31382;50.200;8.674;2023-03-23T22:39:37;2.80;;;1.10;;
45322;SDS011;31382;50.200;8.674;2023-03-23T22:44:39;2.72;;;1.52;;
45322;SDS011;31382;50.200;8.674;2023-03-23T22:49:51;2.60;;;1.30;;
45322;SDS011;31382;50.200;8.674;2023-03-23T22:54:53;1.83;;;1.15;;
45322;SDS011;31382;50.200;8.674;2023-03-23T22:59:54;5.05;;;1.70;;
45322;SDS011;31382;50.200;8.674;2023-03-23T23:04:56;4.50;;;1.90;;
45322;SDS011;31382;50.200;8.674;2023-03-23T23:09:59;3.35;;;1.70;;
45322;SDS011;31382;50.200;8.674;2023-03-23T23:15:01;3.53;;;1.95;;
45322;SDS011;31382;50.200;8.674;2023-03-23T23:20:07;5.38;;;2.58;;
45322;SDS011;31382;50.200;8.674;2023-03-23T23:25:14;7.53;;;2.50;;
45322;SDS011;31382;50.200;8.674;2023-03-23T23:30:17;3.50;;;2.92;;
45322;SDS011;31382;50.200;8.674;2023-03-23T23:35:19;7.13;;;3.60;;
45322;SDS011;31382;50.200;8.674;2023-03-23T23:40:21;5.68;;;3.47;;
45322;SDS011;31382;50.200;8.674;2023-03-23T23:45:23;6.53;;;4.18;;
45322;SDS011;31382;50.200;8.674;2023-03-23T23:50:24;5.90;;;3.95;;
45322;SDS011;31382;50.200;8.674;2023-03-23T23:55:26;8.15;;;3.33;;
